Terminal Aerodrome Forecast
Issued by NWS

Home | Current Version | Previous Version | Text Only | Print | Product List | Glossary On
Versions: 1 2 3 4 5 6 7 8 9 10 11 12 13
000
FTUS45 KRIW 242320
TAFJAC
TAF
KJAC 242320Z 2500/2524 21022G35KT P6SM FEW080
     FM250100 22016G25KT P6SM FEW080
     FM250300 23010KT P6SM FEW080
     FM251000 VRB06KT P6SM FEW090
     FM251500 34007KT P6SM SCT090
     FM252100 32008KT P6SM VCSH SCT050 BKN070
      AMD LTD TO CLD VIS AND WIND=

USA.gov is the U.S. government's official web portal to all federal, state and local government web resources and services.